Tor Futura — OZZE2 — position and weather

sailwx.info

Track history (hours):
 
Tides and Currents Weather Stations Pressure Air Temp Water Temp Dewpoint Dewpoint Depression Visibility Wind Speed Wind Dir Waves Ship Positions

Tor Futura

Last reported at 2015-Mar-27 21:17 UTC. Time now 2015-Mar-28 16:02 UTC.
Position N 38°42' E 009°23'.

Length 183.1 m; beam 25.2 m; draft 7.8 m.

Type: Cargo ship. MMSI: 219927000.

Date/timePositionNaut miles runAvg speedWind from/ knotsBaromVisibWave heightAir tempDewpointWater temp
2015-Mar-27 21:17N 38°42' E 009°23'1216.0
2015-Mar-27 20:34N 38°53' E 009°30'3014.9
2015-Mar-27 18:33N 39°18' E 009°49'31113.9
2015-Mar-26 20:07N 43°10' E 005°13'712.7
2015-Mar-26 19:33N 43°17' E 005°11'8 8.2
2015-Mar-26 18:33N 43°19' E 005°21'0 0.1
2015-Mar-26 17:32N 43°19' E 005°22'0 0.0
2015-Mar-26 16:32N 43°19' E 005°22'0 0.0
2015-Mar-26 15:32N 43°19' E 005°22'0 0.0
2015-Mar-26 14:32N 43°19' E 005°22'0 0.0
2015-Mar-26 13:32N 43°19' E 005°22'0 0.0
2015-Mar-26 12:32N 43°19' E 005°22'0 0.0
2015-Mar-26 11:32N 43°19' E 005°22'0 0.0
2015-Mar-26 10:29N 43°19' E 005°22'0 0.0
2015-Mar-26 09:33N 43°19' E 005°22'4 4.5
2015-Mar-26 08:33N 43°19' E 005°15'30713.2
2015-Mar-25 09:18N 38°44' E 008°16'1314.0
2015-Mar-25 08:23N 38°37' E 008°30'1213.8
2015-Mar-25 07:33N 38°30' E 008°42'  
2015-Mar-22 18:27N 38°33' E 008°44'1813.6
2015-Mar-22 17:09N 38°46' E 008°27'1413.7
2015-Mar-22 16:08N 38°57' E 008°17'814.0
2015-Mar-22 15:32N 39°04' E 008°11'1413.7
2015-Mar-22 14:32N 39°16' E 008°03'1413.4
2015-Mar-22 13:32N 39°28' E 007°55'25614.0
2015-Mar-21 19:16N 43°12' E 005°09'912.5
2015-Mar-21 18:33N 43°20' E 005°15'5 4.2
2015-Mar-21 17:28N 43°19' E 005°22'0 0.0
2015-Mar-21 16:31N 43°19' E 005°22'0 0.0
2015-Mar-21 15:31N 43°19' E 005°22'0 0.0
2015-Mar-21 14:28N 43°19' E 005°22'0 0.0
2015-Mar-21 13:31N 43°19' E 005°22'0 0.0
2015-Mar-21 12:28N 43°19' E 005°22'0 0.0
2015-Mar-21 11:28N 43°19' E 005°22'0 0.0
2015-Mar-21 10:31N 43°19' E 005°22'0 0.0
2015-Mar-21 09:28N 43°19' E 005°22'0 0.0
2015-Mar-21 08:28N 43°19' E 005°22'0 0.0
2015-Mar-21 07:31N 43°19' E 005°22'0 0.0
2015-Mar-21 06:33N 43°19' E 005°22'4 3.7
2015-Mar-21 05:33N 43°20' E 005°17'9 8.8
2015-Mar-21 04:33N 43°12' E 005°11'25615.7
2015-Mar-20 12:15N 39°29' E 007°56'1615.7
2015-Mar-20 11:13N 39°15' E 008°06'1615.6
2015-Mar-20 10:10N 39°00' E 008°15'1315.4
2015-Mar-20 09:19N 38°49' E 008°24'1315.7
2015-Mar-20 08:28N 38°41' E 008°38'4 0.1
2015-Mar-18 18:33N 38°37' E 008°39'1514.8
2015-Mar-18 17:33N 38°47' E 008°26'1514.6
2015-Mar-18 16:30N 38°60' E 008°15'1715.2
2015-Mar-18 15:22N 39°15' E 008°05'1417.5
2015-Mar-18 14:33N 39°27' E 007°55'17515.7
2015-Mar-18 03:25N 42°00' E 006°03'6015.5
2015-Mar-17 23:33N 42°52' E 005°21'2015.3
2015-Mar-17 22:13N 43°09' E 005°07'914.0
2015-Mar-17 21:33N 43°17' E 005°12'  
Track history (hours):
 
Tides and Currents Weather Stations Pressure Air Temp Water Temp Dewpoint Dewpoint Depression Visibility Wind Speed Wind Dir Waves Ship Positions

Tor Futura

Last reported at 2015-Mar-27 21:17 UTC. Time now 2015-Mar-28 16:02 UTC.
Position N 38°42' E 009°23'.

Length 183.1 m; beam 25.2 m; draft 7.8 m.

Type: Cargo ship. MMSI: 219927000.

Date/timePositionNaut miles runAvg speedWind from/ knotsBaromVisibWave heightAir tempDewpointWater temp
2015-Mar-27 21:17N 38°42' E 009°23'1216.0
2015-Mar-27 20:34N 38°53' E 009°30'3014.9
2015-Mar-27 18:33N 39°18' E 009°49'31113.9
2015-Mar-26 20:07N 43°10' E 005°13'712.7
2015-Mar-26 19:33N 43°17' E 005°11'8 8.2
2015-Mar-26 18:33N 43°19' E 005°21'0 0.1
2015-Mar-26 17:32N 43°19' E 005°22'0 0.0
2015-Mar-26 16:32N 43°19' E 005°22'0 0.0
2015-Mar-26 15:32N 43°19' E 005°22'0 0.0
2015-Mar-26 14:32N 43°19' E 005°22'0 0.0
2015-Mar-26 13:32N 43°19' E 005°22'0 0.0
2015-Mar-26 12:32N 43°19' E 005°22'0 0.0
2015-Mar-26 11:32N 43°19' E 005°22'0 0.0
2015-Mar-26 10:29N 43°19' E 005°22'0 0.0
2015-Mar-26 09:33N 43°19' E 005°22'4 4.5
2015-Mar-26 08:33N 43°19' E 005°15'30713.2
2015-Mar-25 09:18N 38°44' E 008°16'1314.0
2015-Mar-25 08:23N 38°37' E 008°30'1213.8
2015-Mar-25 07:33N 38°30' E 008°42'  
2015-Mar-22 18:27N 38°33' E 008°44'1813.6
2015-Mar-22 17:09N 38°46' E 008°27'1413.7
2015-Mar-22 16:08N 38°57' E 008°17'814.0
2015-Mar-22 15:32N 39°04' E 008°11'1413.7
2015-Mar-22 14:32N 39°16' E 008°03'1413.4
2015-Mar-22 13:32N 39°28' E 007°55'25614.0
2015-Mar-21 19:16N 43°12' E 005°09'912.5
2015-Mar-21 18:33N 43°20' E 005°15'5 4.2
2015-Mar-21 17:28N 43°19' E 005°22'0 0.0
2015-Mar-21 16:31N 43°19' E 005°22'0 0.0
2015-Mar-21 15:31N 43°19' E 005°22'0 0.0
2015-Mar-21 14:28N 43°19' E 005°22'0 0.0
2015-Mar-21 13:31N 43°19' E 005°22'0 0.0
2015-Mar-21 12:28N 43°19' E 005°22'0 0.0
2015-Mar-21 11:28N 43°19' E 005°22'0 0.0
2015-Mar-21 10:31N 43°19' E 005°22'0 0.0
2015-Mar-21 09:28N 43°19' E 005°22'0 0.0
2015-Mar-21 08:28N 43°19' E 005°22'0 0.0
2015-Mar-21 07:31N 43°19' E 005°22'0 0.0
2015-Mar-21 06:33N 43°19' E 005°22'4 3.7
2015-Mar-21 05:33N 43°20' E 005°17'9 8.8
2015-Mar-21 04:33N 43°12' E 005°11'25615.7
2015-Mar-20 12:15N 39°29' E 007°56'1615.7
2015-Mar-20 11:13N 39°15' E 008°06'1615.6
2015-Mar-20 10:10N 39°00' E 008°15'1315.4
2015-Mar-20 09:19N 38°49' E 008°24'1315.7
2015-Mar-20 08:28N 38°41' E 008°38'4 0.1
2015-Mar-18 18:33N 38°37' E 008°39'1514.8
2015-Mar-18 17:33N 38°47' E 008°26'1514.6
2015-Mar-18 16:30N 38°60' E 008°15'1715.2
2015-Mar-18 15:22N 39°15' E 008°05'1417.5
2015-Mar-18 14:33N 39°27' E 007°55'17515.7
2015-Mar-18 03:25N 42°00' E 006°03'6015.5
2015-Mar-17 23:33N 42°52' E 005°21'2015.3
2015-Mar-17 22:13N 43°09' E 005°07'914.0
2015-Mar-17 21:33N 43°17' E 005°12'  

Dump ship's entire track history